createdAt,value
2022-09-13T00:00:00.314Z,2.00
2022-09-13T00:02:27.962Z,2.17
2022-09-13T00:04:55.583Z,1.15
2022-09-13T00:07:23.151Z,1.60
2022-09-13T00:09:50.861Z,1.23
2022-09-13T00:12:18.394Z,2.08
2022-09-13T00:14:46.383Z,1.40
2022-09-13T00:17:13.737Z,2.10
2022-09-13T00:19:41.570Z,4.75
2022-09-13T00:22:09.170Z,1.98
2022-09-13T00:24:37.507Z,1.25
2022-09-13T00:27:05.251Z,2.67
2022-09-13T00:29:33.203Z,3.67
2022-09-13T00:32:01.007Z,0.50
2022-09-13T00:34:28.546Z,0.90
2022-09-13T00:36:56.356Z,2.55
2022-09-13T00:39:23.947Z,0.73
2022-09-13T00:41:51.574Z,2.17
2022-09-13T00:44:53.268Z,2.65
2022-09-13T00:47:24.179Z,1.73
2022-09-13T00:49:56.047Z,0.80
2022-09-13T00:52:24.975Z,0.90
2022-09-13T00:54:58.900Z,1.98
2022-09-13T00:57:27.370Z,2.90
2022-09-13T01:00:09.007Z,2.00
2022-09-13T01:02:36.773Z,1.75
2022-09-13T01:05:04.613Z,2.92
2022-09-13T01:07:32.307Z,2.05
2022-09-13T01:09:59.892Z,1.67
2022-09-13T01:12:34.061Z,4.20
2022-09-13T01:15:04.336Z,2.47
2022-09-13T01:17:33.504Z,1.55
2022-09-13T01:20:01.904Z,5.13
2022-09-13T01:22:32.467Z,2.70
2022-09-13T01:25:00.049Z,2.55
2022-09-13T01:27:33.979Z,0.98
2022-09-13T01:30:01.566Z,2.83
2022-09-13T01:32:36.396Z,1.38
2022-09-13T01:35:22.896Z,1.45
2022-09-13T01:38:08.782Z,0.55
2022-09-13T01:41:06.172Z,4.93
2022-09-13T01:44:06.618Z,2.38
2022-09-13T01:46:36.682Z,1.95
2022-09-13T01:49:31.806Z,1.45
2022-09-13T01:52:07.506Z,1.63
2022-09-13T01:54:44.096Z,2.03
2022-09-13T01:57:28.890Z,1.05
2022-09-13T02:00:17.041Z,2.58
2022-09-13T02:03:04.300Z,0.50
2022-09-13T02:05:38.727Z,1.05
2022-09-13T02:08:46.327Z,2.70
2022-09-13T02:11:22.452Z,3.03
2022-09-13T02:13:50.156Z,1.83
2022-09-13T02:16:35.299Z,3.88
2022-09-13T02:19:26.546Z,1.25
2022-09-13T02:21:59.335Z,1.55
2022-09-13T02:24:36.129Z,1.58
2022-09-13T02:27:12.035Z,1.52
2022-09-13T02:29:42.625Z,2.85
2022-09-13T02:32:36.048Z,2.28
2022-09-13T02:35:14.138Z,2.83
2022-09-13T02:37:45.728Z,4.10
2022-09-13T02:40:22.849Z,3.95
2022-09-13T02:43:15.006Z,4.15
2022-09-13T02:46:14.375Z,2.90
2022-09-13T02:49:07.304Z,1.60
2022-09-13T02:51:50.913Z,3.47
2022-09-13T02:54:28.443Z,0.88
2022-09-13T02:57:40.379Z,1.25
2022-09-13T03:00:08.543Z,3.13
2022-09-13T03:02:36.698Z,1.30
2022-09-13T03:05:04.964Z,4.82
2022-09-13T03:07:32.687Z,4.10
2022-09-13T03:10:05.985Z,2.65
2022-09-13T03:13:06.071Z,2.20
2022-09-13T03:16:12.005Z,5.35
2022-09-13T03:19:07.534Z,1.77
2022-09-13T03:21:43.783Z,2.95
2022-09-13T03:27:09.261Z,3.72
2022-09-13T03:29:56.325Z,0.32
2022-09-13T03:33:03.577Z,0.57
2022-09-13T03:38:11.655Z,2.65
2022-09-13T03:40:53.285Z,1.42
2022-09-13T03:43:27.608Z,1.77
2022-09-13T03:46:01.544Z,1.70
2022-09-13T03:48:29.647Z,1.42
2022-09-13T03:50:57.373Z,1.17
2022-09-13T03:53:28.506Z,1.80
2022-09-13T03:55:56.028Z,3.63
2022-09-13T03:58:23.813Z,1.73
2022-09-13T04:00:53.332Z,2.10
2022-09-13T04:03:21.104Z,1.73
2022-09-13T04:05:48.783Z,2.30
2022-09-13T04:08:16.406Z,2.90
2022-09-13T04:10:44.107Z,5.82
2022-09-13T04:13:11.721Z,0.52
2022-09-13T04:15:39.343Z,1.85
2022-09-13T04:18:06.997Z,6.00
2022-09-13T04:20:35.957Z,4.30
2022-09-13T04:23:03.697Z,1.90
2022-09-13T04:25:31.302Z,3.08
2022-09-13T04:28:02.168Z,7.53
2022-09-13T04:30:30.364Z,8.68
2022-09-13T04:32:59.669Z,7.35
2022-09-13T04:35:30.161Z,18.25
2022-09-13T04:37:58.323Z,4.55
2022-09-13T04:40:26.122Z,4.30
2022-09-13T04:42:53.826Z,11.90
2022-09-13T04:45:21.625Z,10.18
2022-09-13T04:47:56.569Z,9.77
2022-09-13T04:50:25.797Z,5.05
2022-09-13T04:52:55.735Z,6.82
2022-09-13T04:55:26.151Z,29.48
2022-09-13T04:57:54.906Z,44.58
2022-09-13T05:00:22.696Z,20.55
2022-09-13T05:02:50.450Z,23.17
2022-09-13T05:05:17.765Z,15.52
2022-09-13T05:07:45.542Z,14.52
2022-09-13T05:10:16.391Z,18.23
2022-09-13T05:12:47.340Z,12.18
2022-09-13T05:15:14.963Z,9.27
2022-09-13T05:17:43.332Z,24.52
2022-09-13T05:20:11.376Z,7.78
2022-09-13T05:22:38.963Z,10.23
2022-09-13T05:25:06.982Z,8.48
2022-09-13T05:27:34.561Z,4.30
2022-09-13T05:30:01.975Z,18.45
2022-09-13T05:32:31.037Z,30.33
2022-09-13T05:34:58.551Z,22.48
2022-09-13T05:37:26.257Z,30.17
2022-09-13T05:40:12.719Z,17.80
2022-09-13T05:42:40.555Z,22.45
2022-09-13T05:45:08.855Z,28.88
2022-09-13T05:47:36.419Z,19.80
2022-09-13T05:50:22.275Z,17.40
2022-09-13T05:52:58.770Z,11.18
2022-09-13T05:55:27.630Z,25.58
2022-09-13T05:57:54.921Z,22.75
2022-09-13T06:00:22.404Z,25.63
2022-09-13T06:02:50.231Z,25.83
2022-09-13T06:05:17.889Z,19.83
2022-09-13T06:07:45.493Z,20.98
2022-09-13T06:10:13.319Z,23.83
2022-09-13T06:12:40.881Z,20.52
2022-09-13T06:15:10.566Z,19.60
2022-09-13T06:17:38.147Z,21.95
2022-09-13T06:20:08.499Z,25.17
2022-09-13T06:22:36.277Z,50.20
2022-09-13T06:25:06.200Z,28.23
2022-09-13T06:27:33.455Z,28.55
2022-09-13T06:30:01.058Z,36.85
2022-09-13T06:32:28.468Z,38.60
2022-09-13T06:34:56.128Z,53.00
2022-09-13T06:37:24.113Z,54.30
2022-09-13T06:39:51.733Z,39.30
2022-09-13T06:42:19.429Z,41.15
2022-09-13T06:44:48.561Z,48.92
2022-09-13T06:47:16.269Z,45.83
2022-09-13T06:49:43.497Z,95.75
2022-09-13T06:52:11.267Z,26.23
2022-09-13T06:54:39.568Z,42.30
2022-09-13T06:57:07.179Z,28.55
2022-09-13T06:59:35.116Z,43.03
2022-09-13T07:02:02.738Z,16.75
2022-09-13T07:04:32.074Z,31.38
2022-09-13T07:07:00.208Z,25.73
2022-09-13T07:09:27.960Z,24.15
2022-09-13T07:11:56.493Z,19.35
2022-09-13T07:14:26.479Z,18.48
2022-09-13T07:16:54.250Z,27.67
2022-09-13T07:19:27.072Z,16.75
2022-09-13T07:21:56.301Z,44.47
2022-09-13T07:24:24.527Z,23.30
2022-09-13T07:26:51.875Z,15.55
2022-09-13T07:29:23.880Z,34.15
2022-09-13T07:31:53.303Z,37.08
2022-09-13T07:34:23.536Z,58.85
2022-09-13T07:36:52.735Z,23.75
2022-09-13T07:39:22.703Z,30.92
2022-09-13T07:41:54.708Z,30.30
2022-09-13T07:44:23.157Z,33.88
2022-09-13T07:46:52.933Z,62.38
2022-09-13T07:49:29.242Z,59.05
2022-09-13T07:51:56.839Z,30.80
2022-09-13T07:54:24.271Z,32.45
2022-09-13T07:56:56.531Z,34.80
2022-09-13T07:59:27.011Z,31.15
2022-09-13T08:02:12.902Z,64.35
2022-09-13T08:04:40.818Z,44.47
2022-09-13T08:07:08.832Z,108.15
2022-09-13T08:09:36.358Z,50.97
2022-09-13T08:12:04.109Z,59.60
2022-09-13T08:14:31.589Z,54.85
2022-09-13T08:16:59.124Z,51.05
2022-09-13T08:19:27.192Z,65.70
2022-09-13T08:21:54.781Z,33.78
2022-09-13T08:24:22.512Z,36.50
2022-09-13T08:26:52.208Z,102.28
2022-09-13T08:29:19.993Z,75.43
2022-09-13T08:31:47.694Z,55.85
2022-09-13T08:34:16.656Z,53.22
2022-09-13T08:36:44.610Z,43.60
2022-09-13T08:39:14.066Z,40.22
2022-09-13T08:41:46.336Z,33.28
2022-09-13T08:44:30.233Z,52.40
2022-09-13T08:47:31.896Z,35.70
2022-09-13T08:50:10.117Z,41.22
2022-09-13T08:52:49.211Z,22.45
2022-09-13T08:55:35.214Z,40.95
2022-09-13T08:58:28.160Z,41.00
2022-09-13T09:01:06.775Z,38.53
2022-09-13T09:03:52.561Z,22.27
2022-09-13T09:06:22.806Z,35.20
2022-09-13T09:08:58.225Z,39.78
2022-09-13T09:11:35.698Z,17.38
2022-09-13T09:14:26.014Z,35.78
2022-09-13T09:17:04.538Z,37.15
2022-09-13T09:19:47.988Z,34.40
2022-09-13T09:22:22.121Z,24.80
2022-09-13T09:24:54.502Z,40.28
2022-09-13T09:27:22.644Z,42.83
2022-09-13T09:29:55.471Z,31.33
2022-09-13T09:32:37.515Z,23.00
2022-09-13T09:35:23.688Z,34.10
2022-09-13T09:38:21.944Z,38.92
2022-09-13T09:40:49.814Z,33.78
2022-09-13T09:43:31.276Z,20.38
2022-09-13T09:45:59.632Z,21.10
2022-09-13T09:48:35.391Z,22.23
2022-09-13T09:51:05.115Z,24.10
2022-09-13T09:53:37.275Z,55.72
2022-09-13T09:56:23.904Z,47.05
2022-09-13T09:58:53.307Z,33.63
2022-09-13T10:01:27.520Z,20.85
2022-09-13T10:04:12.837Z,39.88
2022-09-13T10:06:42.362Z,30.55
2022-09-13T10:09:21.649Z,43.10
2022-09-13T10:11:59.253Z,36.90
2022-09-13T10:14:33.258Z,39.33
2022-09-13T10:17:05.543Z,36.85
2022-09-13T10:19:33.731Z,30.80
2022-09-13T10:22:10.443Z,47.05
2022-09-13T10:24:38.106Z,16.60
2022-09-13T10:27:17.386Z,35.47
2022-09-13T10:29:51.059Z,38.22
2022-09-13T10:32:19.936Z,28.80
2022-09-13T10:34:49.428Z,31.58
2022-09-13T10:37:24.887Z,38.90
2022-09-13T10:40:04.053Z,53.55
2022-09-13T10:42:31.996Z,22.98
2022-09-13T10:44:59.799Z,49.35
2022-09-13T10:48:03.908Z,42.30
2022-09-13T10:50:31.646Z,39.13
2022-09-13T10:53:00.260Z,72.30
2022-09-13T10:55:35.279Z,41.95
2022-09-13T10:58:02.658Z,95.80
2022-09-13T11:00:39.737Z,65.00
2022-09-13T11:03:41.031Z,27.17
2022-09-13T11:06:27.365Z,34.97
2022-09-13T11:09:07.402Z,35.42
2022-09-13T11:12:00.385Z,33.55
2022-09-13T11:14:37.737Z,46.10
2022-09-13T11:17:27.135Z,43.05
2022-09-13T11:20:19.613Z,76.13
2022-09-13T11:23:23.877Z,38.42
2022-09-13T11:26:05.950Z,44.38
2022-09-13T11:28:40.366Z,49.58
2022-09-13T11:31:28.364Z,26.50
2022-09-13T11:34:22.428Z,71.88
2022-09-13T11:37:43.403Z,67.60
2022-09-13T11:40:35.238Z,53.70
2022-09-13T11:43:09.854Z,69.60
2022-09-13T11:46:11.598Z,48.97
2022-09-13T11:48:44.839Z,30.15
2022-09-13T11:51:51.263Z,37.95
2022-09-13T11:54:37.466Z,51.10
2022-09-13T11:57:11.533Z,33.40
2022-09-13T11:59:57.713Z,23.10
2022-09-13T12:02:43.995Z,61.78
2022-09-13T12:05:23.866Z,48.80
2022-09-13T12:08:13.983Z,47.45
2022-09-13T12:11:16.115Z,39.45
2022-09-13T12:13:54.217Z,29.08
2022-09-13T12:16:41.963Z,66.32
2022-09-13T12:19:23.728Z,49.95
2022-09-13T12:21:52.399Z,37.92
2022-09-13T12:24:29.956Z,51.30
2022-09-13T12:26:57.619Z,53.13
2022-09-13T12:29:32.080Z,45.13
2022-09-13T12:32:07.204Z,58.80
2022-09-13T12:34:59.046Z,36.17
2022-09-13T12:37:58.954Z,52.55
2022-09-13T12:40:55.103Z,53.92
2022-09-13T12:43:39.913Z,36.20
2022-09-13T12:46:44.886Z,40.20
2022-09-13T12:49:46.903Z,63.67
2022-09-13T12:52:49.956Z,56.65
2022-09-13T12:55:45.510Z,27.92
2022-09-13T12:58:26.593Z,57.63
2022-09-13T13:01:16.117Z,65.63
2022-09-13T13:03:54.847Z,57.25
2022-09-13T13:06:26.250Z,38.60
2022-09-13T13:08:56.440Z,37.25
2022-09-13T13:11:31.365Z,44.67
2022-09-13T13:14:02.421Z,27.60
2022-09-13T13:16:34.307Z,36.70
2022-09-13T13:19:06.573Z,34.60
2022-09-13T13:21:36.667Z,46.00
2022-09-13T13:26:59.488Z,45.80
2022-09-13T13:29:32.023Z,56.08
2022-09-13T13:32:07.681Z,57.60
2022-09-13T13:34:41.552Z,35.08
2022-09-13T13:37:08.923Z,28.52
2022-09-13T13:39:36.369Z,65.75
2022-09-13T13:42:31.658Z,52.40
2022-09-13T13:45:02.093Z,41.65
2022-09-13T13:47:29.403Z,48.00
2022-09-13T13:50:17.403Z,56.13
2022-09-13T13:52:47.860Z,46.22
2022-09-13T13:55:30.840Z,53.33
2022-09-13T13:58:23.121Z,41.72
2022-09-13T14:00:53.395Z,62.58
2022-09-13T14:03:49.646Z,59.03
2022-09-13T14:06:32.355Z,59.40
2022-09-13T14:09:05.711Z,59.75
2022-09-13T14:11:54.399Z,46.67
2022-09-13T14:17:34.485Z,50.35
2022-09-13T14:20:08.598Z,32.30
2022-09-13T14:22:36.767Z,30.63
2022-09-13T14:25:23.875Z,54.60
2022-09-13T14:27:56.978Z,42.00
2022-09-13T14:30:35.721Z,40.67
2022-09-13T14:33:06.102Z,30.02
2022-09-13T14:35:41.013Z,58.67
2022-09-13T14:38:18.865Z,19.40
2022-09-13T14:40:51.202Z,29.95
2022-09-13T14:43:22.889Z,36.80
2022-09-13T14:46:14.344Z,54.25
2022-09-13T14:48:53.854Z,50.17
2022-09-13T14:51:30.188Z,29.30
2022-09-13T14:54:21.800Z,47.15
2022-09-13T14:56:53.533Z,25.60
2022-09-13T14:59:29.597Z,32.63
2022-09-13T15:02:02.702Z,69.03
2022-09-13T15:04:30.993Z,195.15
2022-09-13T15:07:10.498Z,65.15
2022-09-13T15:09:38.679Z,13.55
2022-09-13T15:12:21.015Z,10.75
2022-09-13T15:14:48.681Z,19.73
2022-09-13T15:17:17.117Z,8.55
2022-09-13T15:19:52.862Z,18.30
2022-09-13T15:22:26.356Z,27.70
2022-09-13T15:24:56.399Z,21.33
2022-09-13T15:29:59.272Z,12.45
2022-09-13T15:32:39.832Z,16.75
2022-09-13T15:35:30.244Z,12.40
2022-09-13T15:38:10.886Z,64.25
2022-09-13T15:40:47.467Z,68.43
2022-09-13T15:43:15.129Z,68.65
2022-09-13T15:45:42.971Z,149.32
2022-09-13T15:48:25.107Z,76.70
2022-09-13T15:51:05.193Z,127.47
2022-09-13T15:53:32.984Z,184.15
2022-09-13T15:56:01.887Z,162.38
2022-09-13T15:58:30.256Z,167.60
2022-09-13T16:00:57.987Z,173.45
2022-09-13T16:03:25.466Z,185.93
2022-09-13T16:05:53.998Z,202.20
2022-09-13T16:08:21.511Z,195.20
2022-09-13T16:10:48.977Z,179.80
2022-09-13T16:13:16.534Z,191.95
2022-09-13T16:15:46.398Z,130.52
2022-09-13T16:18:16.847Z,71.95
2022-09-13T16:20:45.011Z,79.65
2022-09-13T16:23:12.715Z,84.05
2022-09-13T16:25:40.373Z,72.95
2022-09-13T16:28:08.809Z,82.32
2022-09-13T16:30:36.924Z,53.42
2022-09-13T16:33:04.565Z,43.60
2022-09-13T16:35:33.009Z,44.53
2022-09-13T16:38:00.444Z,28.77
2022-09-13T16:40:28.222Z,50.67
2022-09-13T16:42:55.976Z,41.97
2022-09-13T16:45:23.830Z,11.25
2022-09-13T16:47:51.574Z,10.68
2022-09-13T16:50:19.867Z,18.60
2022-09-13T16:52:47.450Z,13.07
2022-09-13T16:55:15.008Z,35.17
2022-09-13T16:57:44.329Z,51.00
2022-09-13T17:00:12.632Z,30.20
2022-09-13T17:02:40.262Z,25.85
2022-09-13T17:05:08.579Z,50.60
2022-09-13T17:07:37.215Z,33.45
2022-09-13T17:10:07.129Z,38.95
2022-09-13T17:12:35.122Z,13.30
2022-09-13T17:15:02.440Z,24.35
2022-09-13T17:17:36.100Z,30.90
2022-09-13T17:20:10.650Z,19.50
2022-09-13T17:22:38.426Z,8.90
2022-09-13T17:25:07.964Z,10.63
2022-09-13T17:27:35.791Z,15.55
2022-09-13T17:30:05.157Z,7.38
2022-09-13T17:32:32.809Z,11.40
2022-09-13T17:35:00.411Z,14.95
2022-09-13T17:37:28.035Z,5.18
2022-09-13T17:39:55.524Z,3.67
2022-09-13T17:42:23.573Z,15.95
2022-09-13T17:44:51.250Z,8.23
2022-09-13T17:47:18.663Z,5.55
2022-09-13T17:49:47.797Z,9.40
2022-09-13T17:52:15.431Z,9.15
2022-09-13T17:54:42.990Z,3.67
2022-09-13T17:57:12.049Z,7.35
2022-09-13T17:59:39.802Z,2.95
2022-09-13T18:02:08.779Z,5.78
2022-09-13T18:04:36.382Z,11.18
2022-09-13T18:07:03.839Z,6.65
2022-09-13T18:09:31.301Z,6.30
2022-09-13T18:11:58.757Z,4.10
2022-09-13T18:14:27.756Z,4.93
2022-09-13T18:16:58.011Z,6.50
2022-09-13T18:19:44.925Z,5.18
2022-09-13T18:22:14.634Z,6.80
2022-09-13T18:24:43.319Z,2.97
2022-09-13T18:27:10.779Z,4.05
2022-09-13T18:29:38.251Z,4.13
2022-09-13T18:32:05.915Z,4.65
2022-09-13T18:34:33.531Z,3.67
2022-09-13T18:37:01.016Z,11.77
2022-09-13T18:39:28.248Z,3.97
2022-09-13T18:41:55.831Z,2.80
2022-09-13T18:44:23.189Z,6.70
2022-09-13T18:46:53.042Z,4.57
2022-09-13T18:49:20.567Z,2.80
2022-09-13T18:51:49.540Z,4.03
2022-09-13T18:54:18.621Z,3.25
2022-09-13T18:56:47.363Z,7.55
2022-09-13T18:59:14.972Z,4.07
2022-09-13T19:01:43.940Z,9.95
2022-09-13T19:04:12.465Z,23.60
2022-09-13T19:06:46.409Z,7.88
2022-09-13T19:09:14.618Z,7.63
2022-09-13T19:11:48.501Z,3.30
2022-09-13T19:14:27.846Z,3.80
2022-09-13T19:17:00.985Z,6.60
2022-09-13T19:19:30.391Z,3.33
2022-09-13T19:21:57.768Z,2.38
2022-09-13T19:24:25.809Z,2.28
2022-09-13T19:26:53.812Z,3.58
2022-09-13T19:29:22.960Z,1.85
2022-09-13T19:31:52.638Z,2.33
2022-09-13T19:34:22.066Z,2.60
2022-09-13T19:36:52.574Z,3.00
2022-09-13T19:39:20.080Z,4.40
2022-09-13T19:41:47.834Z,2.78
2022-09-13T19:44:15.584Z,7.85
2022-09-13T19:46:43.706Z,6.05
2022-09-13T19:49:16.122Z,2.28
2022-09-13T19:51:47.591Z,0.90
2022-09-13T19:54:19.177Z,2.83
2022-09-13T19:56:46.791Z,4.43
2022-09-13T19:59:16.273Z,1.52
2022-09-13T20:01:45.172Z,3.83
2022-09-13T20:04:23.755Z,3.90
2022-09-13T20:06:52.109Z,3.50
2022-09-13T20:09:21.111Z,3.00
2022-09-13T20:11:49.059Z,0.95
2022-09-13T20:14:18.931Z,5.95
2022-09-13T20:16:47.745Z,3.03
2022-09-13T20:22:10.978Z,12.55
2022-09-13T20:24:38.712Z,1.65
2022-09-13T20:27:06.321Z,5.05
2022-09-13T20:29:33.623Z,2.83
2022-09-13T20:32:02.308Z,4.43
2022-09-13T20:34:29.630Z,2.47
2022-09-13T20:36:57.330Z,3.28
2022-09-13T20:39:24.999Z,3.50
2022-09-13T20:41:54.023Z,2.55
2022-09-13T20:44:21.551Z,1.48
2022-09-13T20:46:49.143Z,2.65
2022-09-13T20:49:16.861Z,1.63
2022-09-13T20:51:46.068Z,18.52
2022-09-13T20:54:13.800Z,5.55
2022-09-13T20:56:41.283Z,5.95
2022-09-13T20:59:08.935Z,1.55
2022-09-13T21:01:36.769Z,19.88
2022-09-13T21:04:04.562Z,4.70
2022-09-13T21:06:37.173Z,8.02
2022-09-13T21:09:07.942Z,2.78
2022-09-13T21:11:36.936Z,6.68
2022-09-13T21:14:06.609Z,3.50
2022-09-13T21:16:36.669Z,13.30
2022-09-13T21:21:34.624Z,6.97
2022-09-13T21:24:08.939Z,1.30
2022-09-13T21:26:37.609Z,35.38
2022-09-13T21:29:05.317Z,3.75
2022-09-13T21:31:34.110Z,8.95
2022-09-13T21:34:04.292Z,3.03
2022-09-13T21:39:01.062Z,0.40
2022-09-13T21:41:28.695Z,5.45
2022-09-13T21:43:56.536Z,8.73
2022-09-13T21:46:29.226Z,0.82
2022-09-13T21:48:58.506Z,2.42
2022-09-13T21:51:33.675Z,9.88
2022-09-13T21:54:02.258Z,2.42
2022-09-13T21:56:31.725Z,4.97
2022-09-13T21:59:04.212Z,8.05
2022-09-13T22:01:34.072Z,5.72
2022-09-13T22:04:01.780Z,7.70
2022-09-13T22:06:33.555Z,14.20
2022-09-13T22:09:07.483Z,4.25
2022-09-13T22:11:38.711Z,5.80
2022-09-13T22:14:07.302Z,12.43
2022-09-13T22:16:40.509Z,11.60
2022-09-13T22:19:15.180Z,6.68
2022-09-13T22:21:44.911Z,7.28
2022-09-13T22:24:20.514Z,6.65
2022-09-13T22:26:49.500Z,5.68
2022-09-13T22:29:17.633Z,4.60
2022-09-13T22:31:48.343Z,4.05
2022-09-13T22:34:18.463Z,5.18
2022-09-13T22:36:46.126Z,4.43
2022-09-13T22:39:14.862Z,1.85
2022-09-13T22:41:42.697Z,8.48
2022-09-13T22:44:10.134Z,4.15
2022-09-13T22:46:40.934Z,5.13
2022-09-13T22:49:11.657Z,2.65
2022-09-13T22:51:39.072Z,9.13
2022-09-13T22:54:07.952Z,1.90
2022-09-13T22:56:36.569Z,4.57
2022-09-13T22:59:11.793Z,4.25
2022-09-13T23:01:39.625Z,9.82
2022-09-13T23:04:07.388Z,0.38
2022-09-13T23:06:35.509Z,6.07
2022-09-13T23:09:06.554Z,2.42
2022-09-13T23:11:38.678Z,5.28
2022-09-13T23:14:09.949Z,1.88
2022-09-13T23:16:40.138Z,6.07
2022-09-13T23:19:08.365Z,1.30
2022-09-13T23:21:37.199Z,4.75
2022-09-13T23:24:06.528Z,2.30
2022-09-13T23:26:34.776Z,8.48
2022-09-13T23:29:06.577Z,6.82
2022-09-13T23:31:36.199Z,11.93
2022-09-13T23:34:06.505Z,5.15
2022-09-13T23:36:37.052Z,12.50
2022-09-13T23:39:06.881Z,2.90
2022-09-13T23:41:34.900Z,10.15
2022-09-13T23:44:03.155Z,1.83
2022-09-13T23:46:31.030Z,3.95
2022-09-13T23:48:58.165Z,3.10
2022-09-13T23:51:29.543Z,7.32
2022-09-13T23:53:57.948Z,5.32
2022-09-13T23:56:26.521Z,4.63
2022-09-13T23:58:55.954Z,4.65
